Time;durP1;ratioP1;P1;durP2;ratioP2;P2;SDS_P1;SDS_P2;PMS_P1;PMS_P2;Temp;Humidity;BMP_temperature;BMP_pressure;BME280_temperature;BME280_humidity;BME280_pressure;Samples;Min_cycle;Max_cycle;Signal;HPM_P1;HPM_P2
2023/09/29 00:01:33;;;;;;;2.20;1.63;;;;;;;;;;5062829;28;20071;-83
2023/09/29 00:03:59;;;;;;;2.67;2.03;;;;;;;;;;5061231;28;20036;-84
2023/09/29 00:06:24;;;;;;;2.38;2.13;;;;;;;;;;5062905;28;20051;-84
2023/09/29 00:08:50;;;;;;;3.70;2.42;;;;;;;;;;5065420;28;20064;-83
2023/09/29 00:11:16;;;;;;;3.60;2.33;;;;;;;;;;5074638;28;20406;-84
2023/09/29 00:13:41;;;;;;;4.18;2.28;;;;;;;;;;5067696;28;20074;-85
2023/09/29 00:16:07;;;;;;;2.65;2.20;;;;;;;;;;5066278;28;20182;-83
2023/09/29 00:18:33;;;;;;;4.00;2.17;;;;;;;;;;5067801;28;20500;-83
2023/09/29 00:20:58;;;;;;;5.38;2.05;;;;;;;;;;5082177;28;20601;-84
2023/09/29 00:23:24;;;;;;;3.15;2.13;;;;;;;;;;5061579;28;20049;-84
2023/09/29 00:25:49;;;;;;;7.63;2.13;;;;;;;;;;5077725;28;20475;-84
2023/09/29 00:28:14;;;;;;;4.82;2.05;;;;;;;;;;5060765;28;20047;-84
2023/09/29 00:30:40;;;;;;;3.72;2.30;;;;;;;;;;5066708;28;20024;-83
2023/09/29 00:33:05;;;;;;;4.30;2.20;;;;;;;;;;5082198;28;20032;-84
2023/09/29 00:35:33;;;;;;;4.75;2.20;;;;;;;;;;5061406;28;20033;-84
2023/09/29 00:37:59;;;;;;;4.40;2.50;;;;;;;;;;5057709;28;20098;-85
2023/09/29 00:40:25;;;;;;;4.97;2.28;;;;;;;;;;5066599;28;20021;-85
2023/09/29 00:42:52;;;;;;;3.92;2.22;;;;;;;;;;5073777;28;20025;-85
2023/09/29 00:45:22;;;;;;;4.10;2.35;;;;;;;;;;5065135;28;20108;-84
2023/09/29 00:47:50;;;;;;;3.58;2.00;;;;;;;;;;5090233;28;20036;-84
2023/09/29 00:50:17;;;;;;;2.80;2.00;;;;;;;;;;5069225;28;20207;-85
2023/09/29 00:52:43;;;;;;;4.93;2.45;;;;;;;;;;5081144;28;20020;-85
2023/09/29 00:55:15;;;;;;;2.92;1.90;;;;;;;;;;5062642;28;20118;-85
2023/09/29 00:57:42;;;;;;;5.70;2.47;;;;;;;;;;5073917;28;20046;-85
2023/09/29 01:00:30;;;;;;;3.55;2.63;;;;;;;;;;5076189;28;20084;-85
2023/09/29 01:03:02;;;;;;;2.75;2.47;;;;;;;;;;5093692;28;20434;-84
2023/09/29 01:05:29;;;;;;;4.00;2.28;;;;;;;;;;5070971;28;20028;-85
2023/09/29 01:07:54;;;;;;;2.53;2.15;;;;;;;;;;5070428;28;20114;-85
2023/09/29 01:10:20;;;;;;;3.10;2.13;;;;;;;;;;5090199;28;20450;-85
2023/09/29 01:12:45;;;;;;;3.08;2.20;;;;;;;;;;5074510;28;20031;-86
2023/09/29 01:15:15;;;;;;;3.17;2.03;;;;;;;;;;5082293;28;20210;-85
2023/09/29 01:17:42;;;;;;;3.17;2.20;;;;;;;;;;5097011;28;20028;-85
2023/09/29 01:20:16;;;;;;;2.60;1.77;;;;;;;;;;5073547;28;20483;-84
2023/09/29 01:22:46;;;;;;;3.42;2.05;;;;;;;;;;5069699;28;20829;-83
2023/09/29 01:25:13;;;;;;;2.38;2.00;;;;;;;;;;5080747;28;20074;-84
2023/09/29 01:27:39;;;;;;;4.18;2.33;;;;;;;;;;5076876;28;20052;-84
2023/09/29 01:30:06;;;;;;;1.90;1.75;;;;;;;;;;5069673;28;20043;-83
2023/09/29 01:32:32;;;;;;;3.40;2.30;;;;;;;;;;5068732;28;20498;-85
2023/09/29 01:34:57;;;;;;;3.25;2.30;;;;;;;;;;5069405;28;20029;-83
2023/09/29 01:37:22;;;;;;;3.55;2.10;;;;;;;;;;5078683;28;20017;-86
2023/09/29 01:39:48;;;;;;;3.38;2.33;;;;;;;;;;5074243;28;20050;-83
2023/09/29 01:42:13;;;;;;;6.63;2.60;;;;;;;;;;5067697;28;20028;-82
2023/09/29 01:44:38;;;;;;;4.45;2.67;;;;;;;;;;5095910;28;20020;-86
2023/09/29 01:47:04;;;;;;;7.82;2.05;;;;;;;;;;5079067;28;20029;-85
2023/09/29 01:49:30;;;;;;;3.97;1.75;;;;;;;;;;5080625;28;20023;-85
2023/09/29 01:51:55;;;;;;;3.30;2.13;;;;;;;;;;5078821;28;21030;-84
2023/09/29 01:54:21;;;;;;;2.97;1.77;;;;;;;;;;5076818;28;20021;-86
2023/09/29 01:56:46;;;;;;;4.53;2.13;;;;;;;;;;5076298;28;20025;-84
2023/09/29 01:59:12;;;;;;;4.00;2.03;;;;;;;;;;5067334;28;20039;-83
2023/09/29 02:01:38;;;;;;;2.38;1.90;;;;;;;;;;5076628;28;20108;-84
2023/09/29 02:04:04;;;;;;;2.88;2.08;;;;;;;;;;5068737;28;20033;-84
2023/09/29 02:06:30;;;;;;;3.85;2.10;;;;;;;;;;5067120;28;20027;-84
2023/09/29 02:08:57;;;;;;;3.55;2.00;;;;;;;;;;5070079;28;20103;-84
2023/09/29 02:11:22;;;;;;;2.97;2.10;;;;;;;;;;5075122;28;20082;-83
2023/09/29 02:13:48;;;;;;;3.50;2.15;;;;;;;;;;5091701;28;20032;-84
2023/09/29 02:16:15;;;;;;;2.42;1.98;;;;;;;;;;5061008;28;20025;-84
2023/09/29 02:18:41;;;;;;;3.75;2.03;;;;;;;;;;5064996;28;20020;-84
2023/09/29 02:21:07;;;;;;;2.83;2.10;;;;;;;;;;5084575;28;20025;-85
2023/09/29 02:23:33;;;;;;;3.28;2.65;;;;;;;;;;5076313;28;20036;-83
2023/09/29 02:26:02;;;;;;;2.92;2.20;;;;;;;;;;5080466;28;20497;-84
2023/09/29 02:28:32;;;;;;;4.60;2.28;;;;;;;;;;5096533;28;20123;-84
2023/09/29 02:30:58;;;;;;;4.82;2.10;;;;;;;;;;5077903;28;20025;-84
2023/09/29 02:33:24;;;;;;;3.28;1.90;;;;;;;;;;5066821;28;20044;-83
2023/09/29 02:35:50;;;;;;;2.33;1.48;;;;;;;;;;5086199;28;20040;-84
2023/09/29 02:38:16;;;;;;;4.30;2.00;;;;;;;;;;5069746;28;20024;-82
2023/09/29 02:40:42;;;;;;;4.65;1.85;;;;;;;;;;5091036;28;20021;-83
2023/09/29 02:43:07;;;;;;;2.88;1.90;;;;;;;;;;5068658;28;20078;-83
2023/09/29 02:45:33;;;;;;;1.77;1.50;;;;;;;;;;5066632;28;20036;-83
2023/09/29 02:47:58;;;;;;;2.92;1.70;;;;;;;;;;5066438;28;20070;-83
2023/09/29 02:50:24;;;;;;;2.75;2.03;;;;;;;;;;5089467;28;20494;-82
2023/09/29 02:52:51;;;;;;;3.85;2.40;;;;;;;;;;5072202;28;20107;-83
2023/09/29 02:55:17;;;;;;;3.63;2.05;;;;;;;;;;5061019;28;20029;-83
2023/09/29 02:57:42;;;;;;;2.75;2.25;;;;;;;;;;5092479;28;20032;-84
2023/09/29 03:00:18;;;;;;;2.63;1.92;;;;;;;;;;5074222;28;20025;-83
2023/09/29 03:02:44;;;;;;;4.05;2.00;;;;;;;;;;5086321;28;20031;-84
2023/09/29 03:05:09;;;;;;;3.55;2.40;;;;;;;;;;5103473;28;20024;-84
2023/09/29 03:07:36;;;;;;;3.30;1.92;;;;;;;;;;5060813;28;20044;-85
2023/09/29 03:10:05;;;;;;;3.13;2.03;;;;;;;;;;5071179;28;20048;-84
2023/09/29 03:12:30;;;;;;;4.25;2.33;;;;;;;;;;5086023;28;20139;-85
2023/09/29 03:14:56;;;;;;;2.55;2.20;;;;;;;;;;5067206;28;20479;-85
2023/09/29 03:17:21;;;;;;;3.85;2.25;;;;;;;;;;5070358;28;20027;-84
2023/09/29 03:19:46;;;;;;;2.67;1.80;;;;;;;;;;5070329;28;20475;-84
2023/09/29 03:22:13;;;;;;;7.28;2.17;;;;;;;;;;5074049;28;20508;-84
2023/09/29 03:24:38;;;;;;;3.13;2.03;;;;;;;;;;5073694;28;20024;-84
2023/09/29 03:27:04;;;;;;;4.25;2.28;;;;;;;;;;5067403;28;20032;-83
2023/09/29 03:29:29;;;;;;;7.70;2.08;;;;;;;;;;5075765;28;20455;-84
2023/09/29 03:31:54;;;;;;;4.88;1.95;;;;;;;;;;5071347;28;20100;-84
2023/09/29 03:34:20;;;;;;;2.80;2.13;;;;;;;;;;5066260;28;20391;-83
2023/09/29 03:36:46;;;;;;;3.20;1.95;;;;;;;;;;5065396;28;20025;-83
2023/09/29 03:39:11;;;;;;;2.63;1.58;;;;;;;;;;5068845;28;20521;-83
2023/09/29 03:41:37;;;;;;;3.65;2.17;;;;;;;;;;5075166;28;20074;-83
2023/09/29 03:44:02;;;;;;;2.58;1.85;;;;;;;;;;5071348;28;20044;-83
2023/09/29 03:46:29;;;;;;;3.88;2.17;;;;;;;;;;5081293;28;20031;-85
2023/09/29 03:48:54;;;;;;;2.90;1.90;;;;;;;;;;5067210;28;20033;-83
2023/09/29 03:51:24;;;;;;;4.03;2.30;;;;;;;;;;5083209;28;20033;-83
2023/09/29 03:53:53;;;;;;;2.20;1.85;;;;;;;;;;5072153;28;20478;-83
2023/09/29 03:56:22;;;;;;;4.22;2.33;;;;;;;;;;5073344;28;20056;-83
2023/09/29 03:58:49;;;;;;;3.75;2.35;;;;;;;;;;5064536;28;20033;-82
2023/09/29 04:01:15;;;;;;;1.98;1.77;;;;;;;;;;5074652;28;20024;-83
2023/09/29 04:03:40;;;;;;;3.42;1.80;;;;;;;;;;5076899;28;20038;-83
2023/09/29 04:06:06;;;;;;;3.88;2.38;;;;;;;;;;5068062;28;20035;-81
2023/09/29 04:08:31;;;;;;;4.32;2.15;;;;;;;;;;5075453;28;20029;-85
2023/09/29 04:10:57;;;;;;;2.75;2.00;;;;;;;;;;5067223;28;20116;-83
2023/09/29 04:13:22;;;;;;;3.42;1.88;;;;;;;;;;5062429;28;20029;-82
2023/09/29 04:15:47;;;;;;;3.03;2.10;;;;;;;;;;5078849;28;20037;-85
2023/09/29 04:18:13;;;;;;;3.53;2.20;;;;;;;;;;5082649;28;20025;-84
2023/09/29 04:20:38;;;;;;;3.92;2.00;;;;;;;;;;5082205;28;20028;-84
2023/09/29 04:23:07;;;;;;;3.47;2.00;;;;;;;;;;5075838;28;20035;-84
2023/09/29 04:25:32;;;;;;;2.95;1.90;;;;;;;;;;5078095;28;20029;-84
2023/09/29 04:27:57;;;;;;;3.17;2.08;;;;;;;;;;5067725;28;20059;-85
2023/09/29 04:30:23;;;;;;;7.03;2.70;;;;;;;;;;5068733;28;20029;-84
2023/09/29 04:32:48;;;;;;;3.42;2.10;;;;;;;;;;5064568;28;20028;-84
2023/09/29 04:35:13;;;;;;;3.42;1.95;;;;;;;;;;5073638;28;20031;-85
2023/09/29 04:37:40;;;;;;;2.53;1.85;;;;;;;;;;5085788;28;20028;-84
2023/09/29 04:40:06;;;;;;;2.78;1.92;;;;;;;;;;5064329;28;20024;-84
2023/09/29 04:42:32;;;;;;;2.95;1.90;;;;;;;;;;5069623;28;20027;-84
2023/09/29 04:44:57;;;;;;;3.85;1.95;;;;;;;;;;5079634;28;20096;-83
2023/09/29 04:47:23;;;;;;;2.00;1.75;;;;;;;;;;5086442;28;20024;-80
2023/09/29 04:49:49;;;;;;;5.53;1.88;;;;;;;;;;5076901;28;20104;-82
2023/09/29 04:52:15;;;;;;;2.72;1.88;;;;;;;;;;5084292;28;20032;-84
2023/09/29 04:54:40;;;;;;;2.78;1.88;;;;;;;;;;5081800;28;20028;-84
2023/09/29 04:57:06;;;;;;;2.50;1.67;;;;;;;;;;5070254;28;20552;-83
2023/09/29 04:59:32;;;;;;;2.75;1.77;;;;;;;;;;5077948;28;20055;-84
2023/09/29 05:01:57;;;;;;;2.55;1.70;;;;;;;;;;5064950;28;20016;-84
2023/09/29 05:04:23;;;;;;;2.80;1.92;;;;;;;;;;5051959;28;20103;-85
2023/09/29 05:06:48;;;;;;;3.97;1.98;;;;;;;;;;5077825;28;20048;-84
2023/09/29 05:09:15;;;;;;;2.47;1.55;;;;;;;;;;5066743;28;20547;-80
2023/09/29 05:11:40;;;;;;;3.05;2.00;;;;;;;;;;5070068;28;20024;-83
2023/09/29 05:14:06;;;;;;;4.22;2.10;;;;;;;;;;5062721;28;20068;-83
2023/09/29 05:16:31;;;;;;;4.25;1.58;;;;;;;;;;5070608;28;20025;-81
2023/09/29 05:18:58;;;;;;;3.13;1.95;;;;;;;;;;5066786;28;20028;-81
2023/09/29 05:21:26;;;;;;;2.95;1.83;;;;;;;;;;5060401;28;20051;-83
2023/09/29 05:23:52;;;;;;;3.60;1.92;;;;;;;;;;5072645;28;20035;-82
2023/09/29 05:26:17;;;;;;;2.67;1.73;;;;;;;;;;5067818;28;20036;-84
2023/09/29 05:28:42;;;;;;;3.17;2.28;;;;;;;;;;5080792;28;20059;-86
2023/09/29 05:31:08;;;;;;;4.05;2.22;;;;;;;;;;5056586;28;20056;-85
2023/09/29 05:33:33;;;;;;;2.70;1.88;;;;;;;;;;5059940;28;20077;-83
2023/09/29 05:35:59;;;;;;;2.63;1.98;;;;;;;;;;5067059;28;20028;-85
2023/09/29 05:38:24;;;;;;;2.17;1.67;;;;;;;;;;5074430;28;20025;-87
2023/09/29 05:40:51;;;;;;;3.10;1.88;;;;;;;;;;5073435;28;20029;-84
2023/09/29 05:43:17;;;;;;;2.30;1.75;;;;;;;;;;5067370;28;20021;-85
2023/09/29 05:45:44;;;;;;;4.72;2.53;;;;;;;;;;5069939;28;20031;-85
2023/09/29 05:48:09;;;;;;;2.85;2.03;;;;;;;;;;5069696;28;20028;-84
2023/09/29 05:50:35;;;;;;;3.58;2.03;;;;;;;;;;5067600;28;20025;-84
2023/09/29 05:53:02;;;;;;;2.72;2.00;;;;;;;;;;5066281;28;20423;-86
2023/09/29 05:55:27;;;;;;;1.88;1.70;;;;;;;;;;5087773;28;20040;-81
2023/09/29 05:57:52;;;;;;;3.47;1.92;;;;;;;;;;5071741;28;20051;-83
2023/09/29 06:00:18;;;;;;;11.23;2.63;;;;;;;;;;5082761;28;20028;-83
2023/09/29 06:02:44;;;;;;;4.15;1.70;;;;;;;;;;5073801;28;20029;-84
2023/09/29 06:05:10;;;;;;;3.70;2.00;;;;;;;;;;5069029;28;20071;-82
2023/09/29 06:07:36;;;;;;;3.13;2.08;;;;;;;;;;5079824;28;20025;-85
2023/09/29 06:10:03;;;;;;;6.80;2.88;;;;;;;;;;5079725;28;20044;-82
2023/09/29 06:12:28;;;;;;;2.55;1.85;;;;;;;;;;5075155;28;20108;-84
2023/09/29 06:14:54;;;;;;;2.97;2.10;;;;;;;;;;5068015;28;20053;-84
2023/09/29 06:17:20;;;;;;;9.25;2.00;;;;;;;;;;5071189;28;20064;-84
2023/09/29 06:19:45;;;;;;;2.83;1.85;;;;;;;;;;5082792;28;20119;-86
2023/09/29 06:22:10;;;;;;;2.83;1.80;;;;;;;;;;5059623;28;20025;-84
2023/09/29 06:24:36;;;;;;;5.10;2.38;;;;;;;;;;5077080;28;20047;-84
2023/09/29 06:27:01;;;;;;;3.58;2.10;;;;;;;;;;5069119;28;20028;-84
2023/09/29 06:29:27;;;;;;;3.63;2.08;;;;;;;;;;5093670;28;20063;-83
2023/09/29 06:31:54;;;;;;;4.78;2.40;;;;;;;;;;5071841;28;20036;-83
2023/09/29 06:34:19;;;;;;;3.50;2.30;;;;;;;;;;5080445;28;20475;-84
2023/09/29 06:36:44;;;;;;;5.10;2.67;;;;;;;;;;5081647;28;20063;-83
2023/09/29 06:39:12;;;;;;;5.20;2.47;;;;;;;;;;5074383;28;20443;-83
2023/09/29 06:41:37;;;;;;;7.68;2.85;;;;;;;;;;5072149;28;20025;-84
2023/09/29 06:44:03;;;;;;;4.53;2.50;;;;;;;;;;5070711;28;20078;-84
2023/09/29 06:46:28;;;;;;;2.17;1.98;;;;;;;;;;5085973;28;20055;-84
2023/09/29 06:48:53;;;;;;;3.70;2.08;;;;;;;;;;5065261;28;20032;-84
2023/09/29 06:51:19;;;;;;;2.67;1.85;;;;;;;;;;5077461;28;20398;-85
2023/09/29 06:53:44;;;;;;;6.80;2.65;;;;;;;;;;5091274;28;20115;-82
2023/09/29 06:56:10;;;;;;;2.97;2.20;;;;;;;;;;5069777;28;20428;-84
2023/09/29 06:58:36;;;;;;;3.25;2.45;;;;;;;;;;5062481;28;20111;-84
2023/09/29 07:01:02;;;;;;;6.82;2.40;;;;;;;;;;5082807;28;20063;-85
2023/09/29 07:03:29;;;;;;;3.78;2.15;;;;;;;;;;5073643;28;20050;-84
2023/09/29 07:05:55;;;;;;;4.32;1.92;;;;;;;;;;5070172;28;20059;-84
2023/09/29 07:08:21;;;;;;;2.97;2.10;;;;;;;;;;5058209;28;20033;-84
2023/09/29 07:10:46;;;;;;;2.97;1.83;;;;;;;;;;5053176;28;20024;-84
2023/09/29 07:13:11;;;;;;;7.15;2.15;;;;;;;;;;5079881;28;20126;-83
2023/09/29 07:15:36;;;;;;;4.82;2.03;;;;;;;;;;5082666;28;20438;-84
2023/09/29 07:18:02;;;;;;;4.88;2.28;;;;;;;;;;5061330;28;20523;-85
2023/09/29 07:20:28;;;;;;;2.58;1.85;;;;;;;;;;5064346;28;20060;-83
2023/09/29 07:22:54;;;;;;;7.93;2.35;;;;;;;;;;5083160;28;20036;-84
2023/09/29 07:25:19;;;;;;;2.80;1.80;;;;;;;;;;5082409;28;20035;-85
2023/09/29 07:27:45;;;;;;;3.60;1.95;;;;;;;;;;5068288;28;20103;-84
2023/09/29 07:30:12;;;;;;;3.95;2.08;;;;;;;;;;5076848;28;20051;-83
2023/09/29 07:32:43;;;;;;;7.55;2.17;;;;;;;;;;5069582;28;20029;-85
2023/09/29 07:35:08;;;;;;;3.13;1.98;;;;;;;;;;5094025;28;20096;-83
2023/09/29 07:37:34;;;;;;;5.63;2.38;;;;;;;;;;5086391;28;20028;-84
2023/09/29 07:39:59;;;;;;;2.65;2.10;;;;;;;;;;5097106;28;20029;-87
2023/09/29 07:42:25;;;;;;;4.40;2.28;;;;;;;;;;5074191;28;20052;-83
2023/09/29 07:44:50;;;;;;;4.38;2.15;;;;;;;;;;5067781;28;20024;-85
2023/09/29 07:47:15;;;;;;;5.68;2.15;;;;;;;;;;5068042;28;20029;-84
2023/09/29 07:49:41;;;;;;;4.68;2.13;;;;;;;;;;5067555;28;20012;-85
2023/09/29 07:52:07;;;;;;;3.50;2.63;;;;;;;;;;5074570;28;20106;-86
2023/09/29 07:54:34;;;;;;;8.23;2.70;;;;;;;;;;5070706;28;20028;-84
2023/09/29 07:57:00;;;;;;;4.88;2.40;;;;;;;;;;5079272;28;20063;-84
2023/09/29 07:59:25;;;;;;;3.10;2.28;;;;;;;;;;5085937;28;20021;-85
2023/09/29 08:01:51;;;;;;;11.48;2.58;;;;;;;;;;5091976;28;20039;-84
2023/09/29 08:04:17;;;;;;;5.07;2.70;;;;;;;;;;5063446;28;20031;-85
2023/09/29 08:06:42;;;;;;;3.78;2.40;;;;;;;;;;5068605;28;20020;-84
2023/09/29 08:09:08;;;;;;;2.33;2.08;;;;;;;;;;5070549;28;20580;-85
2023/09/29 08:11:37;;;;;;;2.13;1.85;;;;;;;;;;5074052;28;20734;-86
2023/09/29 08:14:04;;;;;;;3.90;2.05;;;;;;;;;;5068338;28;20031;-86
2023/09/29 08:16:30;;;;;;;2.90;2.20;;;;;;;;;;5069480;28;20082;-85
2023/09/29 08:18:55;;;;;;;7.93;2.75;;;;;;;;;;5076529;28;20032;-85
2023/09/29 08:21:22;;;;;;;4.13;2.13;;;;;;;;;;5078049;28;20060;-86
2023/09/29 08:23:48;;;;;;;3.22;1.80;;;;;;;;;;5067642;28;20029;-85
2023/09/29 08:26:13;;;;;;;6.93;2.20;;;;;;;;;;5070050;28;20471;-84
2023/09/29 08:28:39;;;;;;;3.20;2.13;;;;;;;;;;5073724;28;20049;-84
2023/09/29 08:31:15;;;;;;;2.97;2.20;;;;;;;;;;5065155;28;20025;-83
2023/09/29 08:33:41;;;;;;;3.97;2.17;;;;;;;;;;5069361;28;20355;-83
2023/09/29 08:36:07;;;;;;;2.70;2.10;;;;;;;;;;5077906;28;20093;-81
2023/09/29 08:38:32;;;;;;;2.67;2.10;;;;;;;;;;5083078;28;20028;-82
2023/09/29 08:41:01;;;;;;;5.95;2.40;;;;;;;;;;5089317;28;20021;-81
2023/09/29 08:43:29;;;;;;;7.07;2.15;;;;;;;;;;5078410;28;20033;-85
2023/09/29 08:46:00;;;;;;;4.00;2.13;;;;;;;;;;5071000;28;20019;-82
2023/09/29 08:48:35;;;;;;;3.85;2.15;;;;;;;;;;5078431;28;20009;-82
2023/09/29 08:51:02;;;;;;;4.65;2.30;;;;;;;;;;5094110;28;20307;-83
2023/09/29 08:53:28;;;;;;;3.15;2.00;;;;;;;;;;5072370;28;20108;-84
2023/09/29 08:55:55;;;;;;;5.00;2.20;;;;;;;;;;5077180;28;20043;-85
2023/09/29 08:58:24;;;;;;;4.95;2.55;;;;;;;;;;5077736;28;20032;-85
2023/09/29 09:00:50;;;;;;;2.97;2.20;;;;;;;;;;5092750;28;20064;-84
2023/09/29 09:03:17;;;;;;;4.53;2.70;;;;;;;;;;5071937;28;20085;-84
2023/09/29 09:05:43;;;;;;;5.40;2.35;;;;;;;;;;5075287;28;20025;-84
2023/09/29 09:08:08;;;;;;;4.15;2.90;;;;;;;;;;5074601;28;20040;-86
2023/09/29 09:10:35;;;;;;;10.27;3.05;;;;;;;;;;5081725;28;20068;-84
2023/09/29 09:13:01;;;;;;;7.75;2.42;;;;;;;;;;5089279;28;20028;-83
2023/09/29 09:15:27;;;;;;;6.88;2.97;;;;;;;;;;5102280;28;20031;-85
2023/09/29 09:17:54;;;;;;;5.93;2.60;;;;;;;;;;5090484;28;20052;-86
2023/09/29 09:20:20;;;;;;;3.22;2.25;;;;;;;;;;5076216;28;20051;-85
2023/09/29 09:23:02;;;;;;;3.70;2.30;;;;;;;;;;5082663;28;20084;-86
2023/09/29 09:25:37;;;;;;;3.67;2.20;;;;;;;;;;5090800;28;20243;-86
2023/09/29 09:28:03;;;;;;;6.00;2.70;;;;;;;;;;5084099;28;20020;-86
2023/09/29 09:30:35;;;;;;;3.50;2.67;;;;;;;;;;5079229;28;20024;-86
2023/09/29 09:33:01;;;;;;;3.42;2.13;;;;;;;;;;5076620;28;20021;-82
2023/09/29 09:35:28;;;;;;;4.55;2.50;;;;;;;;;;5080242;28;20027;-84
2023/09/29 09:37:54;;;;;;;6.72;2.20;;;;;;;;;;5083771;28;20123;-85
2023/09/29 09:40:21;;;;;;;6.38;2.22;;;;;;;;;;5075021;28;20036;-83
2023/09/29 09:42:47;;;;;;;4.32;2.10;;;;;;;;;;5087675;28;20021;-85
2023/09/29 09:45:16;;;;;;;3.60;2.17;;;;;;;;;;5068464;28;20120;-85
2023/09/29 09:47:42;;;;;;;2.88;1.90;;;;;;;;;;5082248;28;20120;-83
2023/09/29 09:50:11;;;;;;;1.90;1.70;;;;;;;;;;5056787;28;20057;-83
2023/09/29 09:52:37;;;;;;;3.60;2.00;;;;;;;;;;5089721;28;20072;-82
2023/09/29 09:55:15;;;;;;;6.60;1.70;;;;;;;;;;5075380;28;20047;-84
2023/09/29 09:57:43;;;;;;;2.97;1.73;;;;;;;;;;5091413;28;20487;-84
2023/09/29 10:00:10;;;;;;;1.95;1.65;;;;;;;;;;5085150;28;20037;-85
2023/09/29 10:02:47;;;;;;;3.95;1.52;;;;;;;;;;5070465;28;20115;-84
2023/09/29 10:05:17;;;;;;;1.30;1.15;;;;;;;;;;5073205;28;20025;-84
2023/09/29 10:07:47;;;;;;;3.25;1.75;;;;;;;;;;5082192;28;20077;-83
2023/09/29 10:10:42;;;;;;;2.33;1.58;;;;;;;;;;5072404;28;20067;-86
2023/09/29 10:13:12;;;;;;;3.50;1.58;;;;;;;;;;5076768;28;20063;-81
2023/09/29 10:15:39;;;;;;;2.13;1.75;;;;;;;;;;5085429;28;20025;-82
2023/09/29 10:18:13;;;;;;;1.90;1.42;;;;;;;;;;5084164;28;20027;-84
2023/09/29 10:21:16;;;;;;;4.32;1.63;;;;;;;;;;5066354;28;20681;-83
2023/09/29 10:23:46;;;;;;;2.33;1.70;;;;;;;;;;5079472;28;20052;-82
2023/09/29 10:26:13;;;;;;;2.00;1.48;;;;;;;;;;5078701;28;20056;-83
2023/09/29 10:28:40;;;;;;;1.45;1.35;;;;;;;;;;5089553;28;20020;-84
2023/09/29 10:31:15;;;;;;;2.00;1.33;;;;;;;;;;5059350;28;20051;-84
2023/09/29 10:33:57;;;;;;;3.15;1.38;;;;;;;;;;5070691;28;20135;-84
2023/09/29 10:36:32;;;;;;;2.25;1.35;;;;;;;;;;5070490;28;20030;-83
2023/09/29 10:38:59;;;;;;;1.58;1.40;;;;;;;;;;5076117;28;20020;-82
2023/09/29 10:41:25;;;;;;;1.92;1.38;;;;;;;;;;5088127;28;20104;-83
2023/09/29 10:43:51;;;;;;;1.33;1.23;;;;;;;;;;5082439;28;20038;-83
2023/09/29 10:46:24;;;;;;;2.25;1.30;;;;;;;;;;5064071;28;20075;-83
2023/09/29 10:48:52;;;;;;;2.47;1.67;;;;;;;;;;5062800;28;20032;-84
2023/09/29 10:51:25;;;;;;;1.52;1.42;;;;;;;;;;5064639;28;20028;-82
2023/09/29 10:53:51;;;;;;;2.38;1.67;;;;;;;;;;5076327;28;20375;-86
2023/09/29 10:56:25;;;;;;;1.55;1.35;;;;;;;;;;5080076;28;20019;-83
2023/09/29 10:58:52;;;;;;;2.30;1.60;;;;;;;;;;5070000;28;20050;-84
2023/09/29 11:01:26;;;;;;;2.03;1.60;;;;;;;;;;5069256;28;20056;-83
2023/09/29 11:03:52;;;;;;;2.10;1.50;;;;;;;;;;5067968;28;20632;-82
2023/09/29 11:06:18;;;;;;;3.35;1.60;;;;;;;;;;5066847;28;20028;-82
2023/09/29 11:08:52;;;;;;;2.60;1.80;;;;;;;;;;5088088;28;20024;-84
2023/09/29 11:11:17;;;;;;;2.45;1.40;;;;;;;;;;5057800;28;20021;-83
2023/09/29 11:13:43;;;;;;;2.95;1.42;;;;;;;;;;5063188;28;20059;-83
2023/09/29 11:16:17;;;;;;;1.67;1.35;;;;;;;;;;5067302;28;20398;-83
2023/09/29 11:18:45;;;;;;;2.63;1.92;;;;;;;;;;5064245;28;20082;-84
2023/09/29 11:21:12;;;;;;;3.72;1.60;;;;;;;;;;5073822;28;20107;-85
2023/09/29 11:23:47;;;;;;;2.80;1.80;;;;;;;;;;5065189;28;20032;-83
2023/09/29 11:26:13;;;;;;;1.95;1.65;;;;;;;;;;5074839;28;20027;-83
2023/09/29 11:28:41;;;;;;;3.72;1.90;;;;;;;;;;5088243;28;20063;-83
2023/09/29 11:31:10;;;;;;;2.03;1.55;;;;;;;;;;5070135;28;20020;-83
2023/09/29 11:33:36;;;;;;;2.58;1.73;;;;;;;;;;5069419;28;20025;-83
2023/09/29 11:36:15;;;;;;;1.88;1.42;;;;;;;;;;5050055;28;20013;-84
2023/09/29 11:38:41;;;;;;;5.13;1.85;;;;;;;;;;5076507;28;20059;-83
2023/09/29 11:41:07;;;;;;;2.95;1.83;;;;;;;;;;5076038;28;20036;-83
2023/09/29 11:43:34;;;;;;;2.88;1.75;;;;;;;;;;5088603;28;20017;-85
2023/09/29 11:45:59;;;;;;;4.07;2.25;;;;;;;;;;5065509;28;20035;-82
2023/09/29 11:48:25;;;;;;;2.10;1.55;;;;;;;;;;5060346;28;20081;-83
2023/09/29 11:50:51;;;;;;;1.95;1.70;;;;;;;;;;5065569;28;20027;-84
2023/09/29 11:53:17;;;;;;;3.38;1.70;;;;;;;;;;5062509;28;20085;-84
2023/09/29 11:55:42;;;;;;;2.80;1.60;;;;;;;;;;5069290;28;20020;-84
2023/09/29 11:58:09;;;;;;;2.65;2.03;;;;;;;;;;5065416;28;20047;-84
2023/09/29 12:00:35;;;;;;;2.85;1.65;;;;;;;;;;5068708;28;20082;-83
2023/09/29 12:03:01;;;;;;;2.42;1.77;;;;;;;;;;5074999;28;20025;-86
2023/09/29 12:05:26;;;;;;;3.97;2.08;;;;;;;;;;5066199;28;20068;-83
2023/09/29 12:07:53;;;;;;;3.85;1.92;;;;;;;;;;5065945;28;20114;-84
2023/09/29 12:10:20;;;;;;;2.35;1.83;;;;;;;;;;5084929;28;20020;-81
2023/09/29 12:12:45;;;;;;;2.42;1.55;;;;;;;;;;5094972;28;20029;-82
2023/09/29 12:15:13;;;;;;;3.67;1.88;;;;;;;;;;5083998;28;20085;-82
2023/09/29 12:17:38;;;;;;;2.70;2.00;;;;;;;;;;5065742;28;20052;-82
2023/09/29 12:20:07;;;;;;;2.78;1.80;;;;;;;;;;5087445;28;20735;-85
2023/09/29 12:22:33;;;;;;;4.00;1.65;;;;;;;;;;5063144;28;20017;-86
2023/09/29 12:24:58;;;;;;;6.07;1.92;;;;;;;;;;5063433;28;20036;-84
2023/09/29 12:27:23;;;;;;;2.88;2.13;;;;;;;;;;5061432;28;20033;-85
2023/09/29 12:29:49;;;;;;;2.95;1.90;;;;;;;;;;5058029;28;20043;-85
2023/09/29 12:32:14;;;;;;;2.60;1.63;;;;;;;;;;5064182;28;20523;-83
2023/09/29 12:34:41;;;;;;;2.25;1.90;;;;;;;;;;5082202;28;20115;-83
2023/09/29 12:37:08;;;;;;;3.13;1.77;;;;;;;;;;5085376;28;20016;-81
2023/09/29 12:39:33;;;;;;;3.03;1.95;;;;;;;;;;5080715;28;20117;-83
2023/09/29 12:41:59;;;;;;;3.00;1.95;;;;;;;;;;5075796;28;20032;-82
2023/09/29 12:44:24;;;;;;;4.97;1.75;;;;;;;;;;5089785;28;20028;-81
2023/09/29 12:46:50;;;;;;;4.15;1.95;;;;;;;;;;5085812;28;20036;-85
2023/09/29 12:49:16;;;;;;;3.53;2.10;;;;;;;;;;5084675;28;20044;-83
2023/09/29 12:51:42;;;;;;;1.77;1.67;;;;;;;;;;5074296;28;20114;-85
2023/09/29 12:54:07;;;;;;;2.33;1.73;;;;;;;;;;5078281;28;20029;-86
2023/09/29 12:56:32;;;;;;;3.40;1.92;;;;;;;;;;5071431;28;20384;-84
2023/09/29 12:58:58;;;;;;;2.28;1.80;;;;;;;;;;5074277;28;20033;-84
2023/09/29 13:01:25;;;;;;;2.05;1.67;;;;;;;;;;5090433;28;20066;-87
2023/09/29 13:03:51;;;;;;;2.33;1.75;;;;;;;;;;5077625;28;20035;-79
2023/09/29 13:06:17;;;;;;;2.55;1.70;;;;;;;;;;5091002;28;20040;-84
2023/09/29 13:08:42;;;;;;;3.78;2.10;;;;;;;;;;5079011;28;20059;-83
2023/09/29 13:11:15;;;;;;;1.90;1.60;;;;;;;;;;5064993;28;20020;-84
2023/09/29 13:13:40;;;;;;;1.50;1.40;;;;;;;;;;5062858;28;20079;-83
2023/09/29 13:16:05;;;;;;;2.22;1.58;;;;;;;;;;5077690;28;20025;-82
2023/09/29 13:18:32;;;;;;;1.73;1.40;;;;;;;;;;5068020;28;20078;-83
2023/09/29 13:20:58;;;;;;;4.70;1.90;;;;;;;;;;5074931;28;20106;-83
2023/09/29 13:23:24;;;;;;;1.65;1.50;;;;;;;;;;5085713;28;20024;-83
2023/09/29 13:25:51;;;;;;;1.77;1.60;;;;;;;;;;5082581;28;20032;-83
2023/09/29 13:28:17;;;;;;;2.55;1.80;;;;;;;;;;5080029;28;20055;-83
2023/09/29 13:30:42;;;;;;;2.60;1.70;;;;;;;;;;5068027;28;20025;-85
2023/09/29 13:33:08;;;;;;;2.05;1.23;;;;;;;;;;5042985;28;20300;-85
2023/09/29 13:35:33;;;;;;;2.05;1.58;;;;;;;;;;5073808;28;20049;-83
2023/09/29 13:37:59;;;;;;;1.95;1.55;;;;;;;;;;5064002;28;20558;-85
2023/09/29 13:40:25;;;;;;;3.80;1.50;;;;;;;;;;5081433;28;20024;-85
2023/09/29 13:42:51;;;;;;;2.70;1.50;;;;;;;;;;5059523;28;20055;-84
2023/09/29 13:45:17;;;;;;;1.33;1.23;;;;;;;;;;5082496;28;20036;-83
2023/09/29 13:47:45;;;;;;;1.80;1.70;;;;;;;;;;5079518;28;20020;-84
2023/09/29 13:50:11;;;;;;;1.63;1.52;;;;;;;;;;5084385;28;20037;-86
2023/09/29 13:52:37;;;;;;;1.25;1.20;;;;;;;;;;5068889;28;20395;-84
2023/09/29 13:55:08;;;;;;;2.80;1.83;;;;;;;;;;5073620;28;20643;-84
2023/09/29 13:57:35;;;;;;;2.25;1.70;;;;;;;;;;5040811;28;20554;-84
2023/09/29 14:00:03;;;;;;;1.90;1.58;;;;;;;;;;5071534;28;20092;-83
2023/09/29 14:02:30;;;;;;;2.03;1.50;;;;;;;;;;5084356;28;20031;-84
2023/09/29 14:04:59;;;;;;;2.85;1.80;;;;;;;;;;5055626;28;20041;-84
2023/09/29 14:07:25;;;;;;;2.03;1.70;;;;;;;;;;5067184;28;20032;-85
2023/09/29 14:09:50;;;;;;;1.80;1.55;;;;;;;;;;5078719;28;20478;-82
2023/09/29 14:12:18;;;;;;;2.58;1.83;;;;;;;;;;5086728;28;20028;-84
2023/09/29 14:14:47;;;;;;;2.50;2.00;;;;;;;;;;5072940;28;20085;-86
2023/09/29 14:17:17;;;;;;;1.98;1.42;;;;;;;;;;5067146;28;20044;-86
2023/09/29 14:19:45;;;;;;;1.73;1.52;;;;;;;;;;5064795;28;20037;-85
2023/09/29 14:22:15;;;;;;;3.13;1.98;;;;;;;;;;5065032;28;20029;-86
2023/09/29 14:25:07;;;;;;;2.65;1.67;;;;;;;;;;5064127;28;20029;-86
2023/09/29 14:27:37;;;;;;;1.30;1.20;;;;;;;;;;5059444;28;20075;-86
2023/09/29 14:30:07;;;;;;;2.35;1.45;;;;;;;;;;5037264;28;20040;-83
2023/09/29 14:32:37;;;;;;;2.55;1.85;;;;;;;;;;5080986;28;20015;-85
2023/09/29 14:35:03;;;;;;;4.15;1.60;;;;;;;;;;5073616;28;20041;-83
2023/09/29 14:37:32;;;;;;;1.92;1.40;;;;;;;;;;5083953;28;20028;-83
2023/09/29 14:40:22;;;;;;;3.40;1.67;;;;;;;;;;5082241;28;20032;-83
2023/09/29 14:49:42;;;;;;;1.65;1.55;;;;;;;;;;5160103;22;20049;-84